createdAt,value
2022-09-09T00:00:23.839Z,8.93
2022-09-09T00:03:10.190Z,12.40
2022-09-09T00:05:59.998Z,11.38
2022-09-09T00:08:54.871Z,14.05
2022-09-09T00:11:37.849Z,8.75
2022-09-09T00:14:30.121Z,10.30
2022-09-09T00:17:08.286Z,15.73
2022-09-09T00:20:02.504Z,10.93
2022-09-09T00:22:35.804Z,11.20
2022-09-09T00:25:14.105Z,14.52
2022-09-09T00:27:48.195Z,12.07
2022-09-09T00:30:22.015Z,10.40
2022-09-09T00:32:59.839Z,16.17
2022-09-09T00:35:38.030Z,13.35
2022-09-09T00:38:16.561Z,10.30
2022-09-09T00:40:57.236Z,11.70
2022-09-09T00:43:40.000Z,18.75
2022-09-09T00:46:38.544Z,16.50
2022-09-09T00:49:23.191Z,11.55
2022-09-09T00:52:20.199Z,13.07
2022-09-09T00:54:59.989Z,13.85
2022-09-09T00:57:36.407Z,11.75
2022-09-09T01:00:25.755Z,14.75
2022-09-09T01:03:26.167Z,9.55
2022-09-09T01:06:05.988Z,17.00
2022-09-09T01:08:56.914Z,12.20
2022-09-09T01:11:32.779Z,10.68
2022-09-09T01:14:25.517Z,13.13
2022-09-09T01:17:01.772Z,10.80
2022-09-09T01:19:49.082Z,9.70
2022-09-09T01:22:30.360Z,12.45
2022-09-09T01:25:30.386Z,19.13
2022-09-09T01:28:19.968Z,10.48
2022-09-09T01:30:53.118Z,13.95
2022-09-09T01:33:27.217Z,8.18
2022-09-09T01:36:38.867Z,21.33
2022-09-09T01:39:08.299Z,9.65
2022-09-09T01:42:01.039Z,13.07
2022-09-09T01:44:39.542Z,8.93
2022-09-09T01:47:15.768Z,11.43
2022-09-09T01:50:20.014Z,8.77
2022-09-09T01:53:05.430Z,14.43
2022-09-09T01:55:47.298Z,9.25
2022-09-09T01:58:37.579Z,11.93
2022-09-09T02:01:54.470Z,11.90
2022-09-09T02:04:47.152Z,13.13
2022-09-09T02:07:47.419Z,19.38
2022-09-09T02:10:46.374Z,18.45
2022-09-09T02:13:49.444Z,10.38
2022-09-09T02:16:31.953Z,10.45
2022-09-09T02:19:24.202Z,16.02
2022-09-09T02:22:16.900Z,12.02
2022-09-09T02:24:49.919Z,13.77
2022-09-09T02:27:27.236Z,15.70
2022-09-09T02:30:01.281Z,15.25
2022-09-09T02:36:03.380Z,12.93
2022-09-09T02:38:38.310Z,12.82
2022-09-09T02:41:14.936Z,18.38
2022-09-09T02:43:49.705Z,17.13
2022-09-09T02:46:37.453Z,18.73
2022-09-09T02:49:15.835Z,13.02
2022-09-09T02:51:57.663Z,14.88
2022-09-09T02:54:53.379Z,13.70
2022-09-09T02:57:29.864Z,13.60
2022-09-09T03:00:29.610Z,13.73
2022-09-09T03:03:12.658Z,14.57
2022-09-09T03:05:44.577Z,15.32
2022-09-09T03:08:22.360Z,16.13
2022-09-09T03:10:55.180Z,12.75
2022-09-09T03:13:23.748Z,12.55
2022-09-09T03:15:52.769Z,16.00
2022-09-09T03:18:22.760Z,15.20
2022-09-09T03:20:55.027Z,13.50
2022-09-09T03:23:25.545Z,11.98
2022-09-09T03:25:57.792Z,10.98
2022-09-09T03:28:32.206Z,14.25
2022-09-09T03:31:02.481Z,16.08
2022-09-09T03:33:35.216Z,23.02
2022-09-09T03:36:03.673Z,13.63
2022-09-09T03:38:34.612Z,14.88
2022-09-09T03:41:03.376Z,10.25
2022-09-09T03:43:32.379Z,12.88
2022-09-09T03:46:00.515Z,12.63
2022-09-09T03:48:30.102Z,14.35
2022-09-09T03:51:01.738Z,13.20
2022-09-09T03:53:32.995Z,12.77
2022-09-09T03:56:01.717Z,9.05
2022-09-09T03:58:31.376Z,8.73
2022-09-09T04:01:06.330Z,8.88
2022-09-09T04:03:35.383Z,7.55
2022-09-09T04:06:05.402Z,9.32
2022-09-09T04:08:38.215Z,12.10
2022-09-09T04:11:13.455Z,8.85
2022-09-09T04:13:50.549Z,9.00
2022-09-09T04:16:24.251Z,5.78
2022-09-09T04:18:55.145Z,7.57
2022-09-09T04:21:36.236Z,8.02
2022-09-09T04:24:48.533Z,6.45
2022-09-09T04:27:41.682Z,10.77
2022-09-09T04:30:36.780Z,6.25
2022-09-09T04:36:05.385Z,8.80
2022-09-09T04:38:38.642Z,10.13
2022-09-09T04:41:16.236Z,5.47
2022-09-09T04:43:49.702Z,5.93
2022-09-09T04:46:23.114Z,6.33
2022-09-09T04:49:00.129Z,7.63
2022-09-09T04:51:55.008Z,10.35
2022-09-09T04:54:27.914Z,9.80
2022-09-09T04:56:59.358Z,9.10
2022-09-09T04:59:32.596Z,9.32
2022-09-09T05:02:08.182Z,9.00
2022-09-09T05:04:41.725Z,10.63
2022-09-09T05:07:11.460Z,8.13
2022-09-09T05:09:44.682Z,12.60
2022-09-09T05:12:25.401Z,8.93
2022-09-09T05:15:01.650Z,8.25
2022-09-09T05:17:33.249Z,9.38
2022-09-09T05:20:22.505Z,10.18
2022-09-09T05:23:00.801Z,10.05
2022-09-09T05:25:38.209Z,9.27
2022-09-09T05:28:37.117Z,11.70
2022-09-09T05:31:22.707Z,10.48
2022-09-09T05:34:24.194Z,7.47
2022-09-09T05:36:56.708Z,12.98
2022-09-09T05:39:28.645Z,11.70
2022-09-09T05:42:03.532Z,13.43
2022-09-09T05:44:40.950Z,9.85
2022-09-09T05:47:10.756Z,12.68
2022-09-09T05:49:49.729Z,11.95
2022-09-09T05:52:20.641Z,13.18
2022-09-09T05:54:52.480Z,8.88
2022-09-09T05:57:29.893Z,12.25
2022-09-09T06:00:14.109Z,16.02
2022-09-09T06:02:47.903Z,14.43
2022-09-09T06:05:16.809Z,10.90
2022-09-09T06:07:46.310Z,12.95
2022-09-09T06:10:20.858Z,16.58
2022-09-09T06:12:56.272Z,10.13
2022-09-09T06:15:28.470Z,15.82
2022-09-09T06:18:01.494Z,15.23
2022-09-09T06:20:35.830Z,10.98
2022-09-09T06:23:14.109Z,14.48
2022-09-09T06:25:47.799Z,10.90
2022-09-09T06:28:27.120Z,12.45
2022-09-09T06:31:08.926Z,10.65
2022-09-09T06:33:43.356Z,10.57
2022-09-09T06:36:26.845Z,16.20
2022-09-09T06:38:56.437Z,14.05
2022-09-09T06:41:31.635Z,12.85
2022-09-09T06:44:43.193Z,9.60
2022-09-09T06:47:22.741Z,13.32
2022-09-09T06:49:57.423Z,11.05
2022-09-09T06:52:27.587Z,11.75
2022-09-09T06:55:00.446Z,9.65
2022-09-09T06:57:45.863Z,10.63
2022-09-09T07:00:25.205Z,8.85
2022-09-09T07:03:00.011Z,14.55
2022-09-09T07:05:55.307Z,9.77
2022-09-09T07:08:36.505Z,12.48
2022-09-09T07:11:12.394Z,11.45
2022-09-09T07:13:46.975Z,12.00
2022-09-09T07:16:33.537Z,9.77
2022-09-09T07:19:21.903Z,11.60
2022-09-09T07:22:00.422Z,7.72
2022-09-09T07:24:31.714Z,7.72
2022-09-09T07:27:05.074Z,9.23
2022-09-09T07:29:33.408Z,7.25
2022-09-09T07:32:03.946Z,11.23
2022-09-09T07:34:39.848Z,6.72
2022-09-09T07:37:09.353Z,10.60
2022-09-09T07:39:39.620Z,10.57
2022-09-09T07:42:12.295Z,8.73
2022-09-09T07:44:41.437Z,8.52
2022-09-09T07:47:19.447Z,11.97
2022-09-09T07:49:55.676Z,11.05
2022-09-09T07:52:30.351Z,10.25
2022-09-09T07:55:03.677Z,8.52
2022-09-09T07:57:34.746Z,8.32
2022-09-09T08:00:06.663Z,10.70
2022-09-09T08:02:44.205Z,8.85
2022-09-09T08:05:21.395Z,11.63
2022-09-09T08:07:54.673Z,14.65
2022-09-09T08:10:24.476Z,13.15
2022-09-09T08:13:16.646Z,9.20
2022-09-09T08:15:53.203Z,10.52
2022-09-09T08:18:25.913Z,29.70
2022-09-09T08:21:09.882Z,12.07
2022-09-09T08:23:41.281Z,16.05
2022-09-09T08:26:16.373Z,10.45
2022-09-09T08:28:45.976Z,10.25
2022-09-09T08:31:18.073Z,11.98
2022-09-09T08:33:53.127Z,15.75
2022-09-09T08:36:26.628Z,10.00
2022-09-09T08:38:56.769Z,14.13
2022-09-09T08:41:52.102Z,13.60
2022-09-09T08:44:34.133Z,12.60
2022-09-09T08:47:12.939Z,11.63
2022-09-09T08:50:00.159Z,15.85
2022-09-09T08:52:34.634Z,9.70
2022-09-09T08:55:16.049Z,20.55
2022-09-09T08:57:46.863Z,15.02
2022-09-09T09:00:17.558Z,9.23
2022-09-09T09:02:57.837Z,14.15
2022-09-09T09:05:34.602Z,9.60
2022-09-09T09:08:14.934Z,11.65
2022-09-09T09:10:50.253Z,11.50
2022-09-09T09:13:30.017Z,9.85
2022-09-09T09:16:07.112Z,7.78
2022-09-09T09:18:38.801Z,10.00
2022-09-09T09:21:16.580Z,12.40
2022-09-09T09:23:53.228Z,12.10
2022-09-09T09:26:25.769Z,11.50
2022-09-09T09:28:58.595Z,8.65
2022-09-09T09:31:30.206Z,7.77
2022-09-09T09:34:01.570Z,7.22
2022-09-09T09:36:42.845Z,10.75
2022-09-09T09:42:27.682Z,11.35
2022-09-09T09:45:09.975Z,14.35
2022-09-09T09:47:42.687Z,9.07
2022-09-09T09:50:22.539Z,9.77
2022-09-09T09:53:00.297Z,9.00
2022-09-09T09:55:38.516Z,6.72
2022-09-09T09:58:19.595Z,14.48
2022-09-09T10:01:01.484Z,12.50
2022-09-09T10:03:40.939Z,11.60
2022-09-09T10:06:10.840Z,10.10
2022-09-09T10:08:51.432Z,9.15
2022-09-09T10:11:37.521Z,10.95
2022-09-09T10:14:21.742Z,9.35
2022-09-09T10:17:20.078Z,10.98
2022-09-09T10:20:04.064Z,10.77
2022-09-09T10:22:41.536Z,16.67
2022-09-09T10:25:32.287Z,12.15
2022-09-09T10:28:21.658Z,12.43
2022-09-09T10:31:01.521Z,15.45
2022-09-09T10:33:49.752Z,15.20
2022-09-09T10:36:30.764Z,11.43
2022-09-09T10:39:14.234Z,12.82
2022-09-09T10:42:03.678Z,8.13
2022-09-09T10:44:51.549Z,13.80
2022-09-09T10:48:05.677Z,8.85
2022-09-09T10:51:15.573Z,11.73
2022-09-09T10:53:59.071Z,9.90
2022-09-09T10:56:31.411Z,11.35
2022-09-09T10:59:05.051Z,6.57
2022-09-09T11:01:46.685Z,9.93
2022-09-09T11:04:22.717Z,12.82
2022-09-09T11:06:57.447Z,13.52
2022-09-09T11:09:31.367Z,13.90
2022-09-09T11:12:03.608Z,12.48
2022-09-09T11:14:40.624Z,8.83
2022-09-09T11:17:16.766Z,13.05
2022-09-09T11:19:48.905Z,10.88
2022-09-09T11:22:29.218Z,10.05
2022-09-09T11:25:10.162Z,4.15
2022-09-09T11:27:46.012Z,6.70
2022-09-09T11:30:51.158Z,6.68
2022-09-09T11:33:37.120Z,10.18
2022-09-09T11:36:54.907Z,7.25
2022-09-09T11:39:51.875Z,8.85
2022-09-09T11:42:27.910Z,8.23
2022-09-09T11:44:59.949Z,7.70
2022-09-09T11:47:33.718Z,11.10
2022-09-09T11:50:33.378Z,10.13
2022-09-09T11:53:23.743Z,5.50
2022-09-09T11:56:10.741Z,6.43
2022-09-09T11:58:44.642Z,6.78
2022-09-09T12:01:30.588Z,10.02
2022-09-09T12:04:32.249Z,7.15
2022-09-09T12:07:26.679Z,8.38
2022-09-09T12:10:03.016Z,14.20
2022-09-09T12:12:36.759Z,13.30
2022-09-09T12:15:24.833Z,8.10
2022-09-09T12:18:02.931Z,5.80
2022-09-09T12:20:39.956Z,9.25
2022-09-09T12:23:37.399Z,6.45
2022-09-09T12:26:32.236Z,10.23
2022-09-09T12:29:13.195Z,4.97
2022-09-09T12:31:49.067Z,8.38
2022-09-09T12:34:23.788Z,8.52
2022-09-09T12:37:01.109Z,10.27
2022-09-09T12:39:38.067Z,6.45
2022-09-09T12:42:25.942Z,4.00
2022-09-09T12:45:09.740Z,6.70
2022-09-09T12:47:54.495Z,11.93
2022-09-09T12:50:26.793Z,8.07
2022-09-09T12:53:00.179Z,4.28
2022-09-09T12:55:36.715Z,7.78
2022-09-09T12:58:07.980Z,7.20
2022-09-09T13:00:39.105Z,5.43
2022-09-09T13:03:21.434Z,9.13
2022-09-09T13:05:51.339Z,10.40
2022-09-09T13:08:22.895Z,7.50
2022-09-09T13:11:02.538Z,10.93
2022-09-09T13:13:38.945Z,5.32
2022-09-09T13:16:11.518Z,11.45
2022-09-09T13:18:45.107Z,7.95
2022-09-09T13:24:36.915Z,8.00
2022-09-09T13:27:29.109Z,5.80
2022-09-09T13:29:59.138Z,10.73
2022-09-09T13:32:32.707Z,8.73
2022-09-09T13:35:05.098Z,7.07
2022-09-09T13:37:39.112Z,4.25
2022-09-09T13:40:20.411Z,7.20
2022-09-09T13:42:55.810Z,6.65
2022-09-09T13:45:28.914Z,7.78
2022-09-09T13:47:58.384Z,9.75
2022-09-09T13:50:29.349Z,9.57
2022-09-09T13:53:01.398Z,8.45
2022-09-09T13:55:33.542Z,9.80
2022-09-09T13:58:06.896Z,10.05
2022-09-09T14:00:37.661Z,5.10
2022-09-09T14:03:06.038Z,10.50
2022-09-09T14:05:37.796Z,4.88
2022-09-09T14:08:08.892Z,8.88
2022-09-09T14:10:42.542Z,6.57
2022-09-09T14:13:15.122Z,3.60
2022-09-09T14:16:13.080Z,4.20
2022-09-09T14:18:58.599Z,7.22
2022-09-09T14:21:36.636Z,12.25
2022-09-09T14:24:18.990Z,19.95
2022-09-09T14:27:12.932Z,8.65
2022-09-09T14:29:44.926Z,6.55
2022-09-09T14:32:26.470Z,11.15
2022-09-09T14:35:03.026Z,5.88
2022-09-09T14:37:54.583Z,4.45
2022-09-09T14:40:24.043Z,6.45
2022-09-09T14:42:54.613Z,5.00
2022-09-09T14:45:28.877Z,4.47
2022-09-09T14:48:01.975Z,5.15
2022-09-09T14:50:32.156Z,4.00
2022-09-09T14:53:02.877Z,6.40
2022-09-09T14:55:33.099Z,2.35
2022-09-09T14:58:03.359Z,4.15
2022-09-09T15:00:33.921Z,4.78
2022-09-09T15:03:06.018Z,1.70
2022-09-09T15:05:36.558Z,1.80
2022-09-09T15:08:06.158Z,2.72
2022-09-09T15:10:34.593Z,1.23
2022-09-09T15:13:04.664Z,1.73
2022-09-09T15:15:37.357Z,6.88
2022-09-09T15:18:09.660Z,2.78
2022-09-09T15:20:40.510Z,3.78
2022-09-09T15:23:10.374Z,3.25
2022-09-09T15:25:41.386Z,4.93
2022-09-09T15:28:11.510Z,4.45
2022-09-09T15:30:42.356Z,7.90
2022-09-09T15:33:13.051Z,4.03
2022-09-09T15:35:42.592Z,7.55
2022-09-09T15:38:11.808Z,4.13
2022-09-09T15:40:43.277Z,6.38
2022-09-09T15:43:14.074Z,4.90
2022-09-09T15:45:45.322Z,6.63
2022-09-09T15:48:17.044Z,5.60
2022-09-09T15:50:48.030Z,5.90
2022-09-09T15:53:19.138Z,4.10
2022-09-09T15:55:51.283Z,3.17
2022-09-09T15:58:23.144Z,4.22
2022-09-09T16:00:52.968Z,4.18
2022-09-09T16:03:24.161Z,4.30
2022-09-09T16:05:54.053Z,3.55
2022-09-09T16:08:22.759Z,7.38
2022-09-09T16:10:51.961Z,8.52
2022-09-09T16:13:20.513Z,4.07
2022-09-09T16:16:01.147Z,4.43
2022-09-09T16:18:36.129Z,2.75
2022-09-09T16:21:07.451Z,5.90
2022-09-09T16:23:36.742Z,2.72
2022-09-09T16:26:06.470Z,3.75
2022-09-09T16:28:37.442Z,3.78
2022-09-09T16:31:11.801Z,3.03
2022-09-09T16:33:42.360Z,2.22
2022-09-09T16:36:13.501Z,4.00
2022-09-09T16:38:44.498Z,3.25
2022-09-09T16:41:17.265Z,3.22
2022-09-09T16:43:48.243Z,2.97
2022-09-09T16:46:22.849Z,3.80
2022-09-09T16:49:03.325Z,4.10
2022-09-09T16:51:51.279Z,4.78
2022-09-09T16:54:30.294Z,7.18
2022-09-09T16:57:02.275Z,3.90
2022-09-09T16:59:33.226Z,3.42
2022-09-09T17:02:05.959Z,8.18
2022-09-09T17:04:34.591Z,8.48
2022-09-09T17:07:04.265Z,4.10
2022-09-09T17:09:32.919Z,6.32
2022-09-09T17:12:02.718Z,8.52
2022-09-09T17:14:33.540Z,6.07
2022-09-09T17:17:24.755Z,7.20
2022-09-09T17:19:54.560Z,3.78
2022-09-09T17:22:28.622Z,4.90
2022-09-09T17:24:57.567Z,6.05
2022-09-09T17:27:32.467Z,2.97
2022-09-09T17:30:07.734Z,5.25
2022-09-09T17:32:39.303Z,5.18
2022-09-09T17:35:11.613Z,5.97
2022-09-09T17:37:44.118Z,5.75
2022-09-09T17:40:15.994Z,6.22
2022-09-09T17:42:45.475Z,6.82
2022-09-09T17:45:19.481Z,5.90
2022-09-09T17:50:19.762Z,4.35
2022-09-09T17:52:51.073Z,4.82
2022-09-09T17:55:22.993Z,5.72
2022-09-09T17:57:54.773Z,4.97
2022-09-09T18:00:25.713Z,9.65
2022-09-09T18:02:57.425Z,4.35
2022-09-09T18:05:26.218Z,4.47
2022-09-09T18:07:56.274Z,5.43
2022-09-09T18:10:24.911Z,5.70
2022-09-09T18:12:58.789Z,6.38
2022-09-09T18:15:47.979Z,6.68
2022-09-09T18:18:17.161Z,6.55
2022-09-09T18:20:45.679Z,8.15
2022-09-09T18:23:15.148Z,3.28
2022-09-09T18:25:45.407Z,3.85
2022-09-09T18:28:14.657Z,2.78
2022-09-09T18:30:44.621Z,6.20
2022-09-09T18:33:13.700Z,3.90
2022-09-09T18:35:44.247Z,4.68
2022-09-09T18:38:13.746Z,7.35
2022-09-09T18:40:43.448Z,5.10
2022-09-09T18:43:22.992Z,4.32
2022-09-09T18:45:59.696Z,6.95
2022-09-09T18:48:29.042Z,7.70
2022-09-09T18:51:04.823Z,6.85
2022-09-09T18:53:35.500Z,7.00
2022-09-09T18:56:08.446Z,14.30
2022-09-09T18:58:40.070Z,6.88
2022-09-09T19:01:12.972Z,4.72
2022-09-09T19:03:44.578Z,5.53
2022-09-09T19:06:21.679Z,4.65
2022-09-09T19:08:56.256Z,4.75
2022-09-09T19:11:32.529Z,8.15
2022-09-09T19:14:05.799Z,7.50
2022-09-09T19:16:37.165Z,6.38
2022-09-09T19:19:11.586Z,3.58
2022-09-09T19:21:47.779Z,7.63
2022-09-09T19:24:20.053Z,4.70
2022-09-09T19:26:58.511Z,6.65
2022-09-09T19:29:31.115Z,6.03
2022-09-09T19:32:51.602Z,5.93
2022-09-09T19:34:55.178Z,5.60
2022-09-09T19:37:26.728Z,5.53
2022-09-09T19:39:56.547Z,6.53
2022-09-09T19:42:25.635Z,2.30
2022-09-09T19:44:56.840Z,6.65
2022-09-09T19:47:27.762Z,8.88
2022-09-09T19:49:59.882Z,4.88
2022-09-09T19:52:32.746Z,7.80
2022-09-09T19:55:02.647Z,7.20
2022-09-09T19:57:34.801Z,8.38
2022-09-09T20:00:05.512Z,5.45
2022-09-09T20:02:58.060Z,6.10
2022-09-09T20:05:34.992Z,8.05
2022-09-09T20:08:07.816Z,3.15
2022-09-09T20:10:36.795Z,6.50
2022-09-09T20:13:06.852Z,5.35
2022-09-09T20:15:36.514Z,5.03
2022-09-09T20:18:08.754Z,4.28
2022-09-09T20:20:43.409Z,5.88
2022-09-09T20:23:17.428Z,5.85
2022-09-09T20:25:50.137Z,3.65
2022-09-09T20:28:21.320Z,7.70
2022-09-09T20:30:54.149Z,4.47
2022-09-09T20:33:25.637Z,8.75
2022-09-09T20:35:55.083Z,7.00
2022-09-09T20:38:26.916Z,7.65
2022-09-09T20:40:58.640Z,6.50
2022-09-09T20:43:29.723Z,6.75
2022-09-09T20:46:04.088Z,6.97
2022-09-09T20:48:35.139Z,7.20
2022-09-09T20:51:11.450Z,9.95
2022-09-09T20:53:43.332Z,15.55
2022-09-09T20:56:13.086Z,7.70
2022-09-09T20:58:44.383Z,7.90
2022-09-09T21:01:19.416Z,12.27
2022-09-09T21:03:50.054Z,6.45
2022-09-09T21:06:20.915Z,7.45
2022-09-09T21:08:52.129Z,8.68
2022-09-09T21:11:21.586Z,7.40
2022-09-09T21:13:52.973Z,9.55
2022-09-09T21:16:22.598Z,7.03
2022-09-09T21:18:52.865Z,5.55
2022-09-09T21:21:22.942Z,9.85
2022-09-09T21:23:57.056Z,7.97
2022-09-09T21:26:26.994Z,7.70
2022-09-09T21:28:57.107Z,8.23
2022-09-09T21:31:28.493Z,6.68
2022-09-09T21:33:59.624Z,9.93
2022-09-09T21:36:29.648Z,5.20
2022-09-09T21:39:02.345Z,10.25
2022-09-09T21:41:31.265Z,7.53
2022-09-09T21:43:59.325Z,4.10
2022-09-09T21:46:28.174Z,6.28
2022-09-09T21:48:57.169Z,5.05
2022-09-09T21:51:26.575Z,7.03
2022-09-09T21:53:56.672Z,6.32
2022-09-09T21:56:27.847Z,9.90
2022-09-09T21:58:58.375Z,7.30
2022-09-09T22:01:28.353Z,5.85
2022-09-09T22:03:57.263Z,14.93
2022-09-09T22:06:25.471Z,6.05
2022-09-09T22:08:59.420Z,8.23
2022-09-09T22:11:30.367Z,8.57
2022-09-09T22:14:00.358Z,5.78
2022-09-09T22:16:29.147Z,6.43
2022-09-09T22:19:01.029Z,7.50
2022-09-09T22:21:32.366Z,10.52
2022-09-09T22:24:04.928Z,8.57
2022-09-09T22:26:39.023Z,8.35
2022-09-09T22:29:09.646Z,10.52
2022-09-09T22:31:39.426Z,11.02
2022-09-09T22:34:08.835Z,10.70
2022-09-09T22:36:38.781Z,10.90
2022-09-09T22:39:09.056Z,10.70
2022-09-09T22:41:43.115Z,15.38
2022-09-09T22:44:13.659Z,7.20
2022-09-09T22:46:44.391Z,10.27
2022-09-09T22:49:14.463Z,8.02
2022-09-09T22:51:42.816Z,10.00
2022-09-09T22:54:12.823Z,9.95
2022-09-09T22:56:44.495Z,8.77
2022-09-09T22:59:16.583Z,10.43
2022-09-09T23:01:48.281Z,14.63
2022-09-09T23:04:19.351Z,8.40
2022-09-09T23:06:48.507Z,14.23
2022-09-09T23:09:18.494Z,8.60
2022-09-09T23:11:49.323Z,11.57
2022-09-09T23:14:17.222Z,11.05
2022-09-09T23:16:46.918Z,10.15
2022-09-09T23:19:17.315Z,10.55
2022-09-09T23:21:47.150Z,11.20
2022-09-09T23:24:17.684Z,14.23
2022-09-09T23:26:47.389Z,12.18
2022-09-09T23:29:16.888Z,10.82
2022-09-09T23:31:46.608Z,12.85
2022-09-09T23:34:14.839Z,14.93
2022-09-09T23:36:43.061Z,15.02
2022-09-09T23:39:13.181Z,17.13
2022-09-09T23:41:41.727Z,10.73
2022-09-09T23:44:12.828Z,13.20
2022-09-09T23:46:42.542Z,12.60
2022-09-09T23:49:11.229Z,14.80
2022-09-09T23:51:39.458Z,13.00
2022-09-09T23:54:09.417Z,12.60
2022-09-09T23:56:40.458Z,12.13
2022-09-09T23:59:09.709Z,11.88
